Terminal Aerodrome Forecast
Issued by NWS

Home | Current Version | Previous Version | Text Only | Print | Product List | Glossary On
Versions: 1 2 3 4 5 6 7 8 9 10 11 12 13 14 15 16 17 18 19
000
FTUS43 KOAX 311353 AAD
TAFSNY
TAF AMD
KSNY 311353Z 3114/0112 16012KT 1/2SM FG OVC002
      TEMPO 3114/3115 2SM BR BKN003
     FM311600 17020G27KT P6SM SCT150
     FM010100 16017KT P6SM SCT250=

USA.gov is the U.S. government's official web portal to all federal, state and local government web resources and services.